Time;durP1;ratioP1;P1;durP2;ratioP2;P2;SDS_P1;SDS_P2;PMS_P1;PMS_P2;Temp;Humidity;BMP_temperature;BMP_pressure;BME280_temperature;BME280_humidity;BME280_pressure;Samples;Min_cycle;Max_cycle;Signal;HPM_P1;HPM_P2
2022/03/30 00:01:04;;;;;;;37.75;13.50;;;11.70;98.50;;;11.82;62.88;100002.94;5245982;28;20059;-71
2022/03/30 00:03:36;;;;;;;32.03;13.13;;;11.70;98.20;;;11.82;62.60;99991.63;5244748;28;20075;-71
2022/03/30 00:06:08;;;;;;;35.05;13.00;;;11.70;98.00;;;11.84;62.50;99984.69;5246269;28;20048;-69
2022/03/30 00:08:42;;;;;;;32.95;13.48;;;11.70;98.10;;;11.83;62.85;99988.16;5245435;28;20051;-73
2022/03/30 00:11:15;;;;;;;36.78;13.80;;;11.70;98.30;;;11.81;61.97;99988.13;5245708;28;20048;-71
2022/03/30 00:13:47;;;;;;;32.88;13.10;;;11.70;97.60;;;11.78;62.20;99984.53;5245795;28;20048;-70
2022/03/30 00:16:20;;;;;;;31.48;12.55;;;11.70;97.60;;;11.78;62.24;99987.16;5241955;28;20376;-70
2022/03/30 00:18:52;;;;;;;33.83;14.02;;;11.70;97.80;;;11.75;62.51;99981.88;5244940;28;20058;-70
2022/03/30 00:21:24;;;;;;;35.40;12.98;;;11.60;98.00;;;11.73;62.81;99976.63;5245698;28;20049;-70
2022/03/30 00:23:56;;;;;;;34.00;13.00;;;11.60;98.00;;;11.71;62.69;99972.22;5243825;28;20060;-70
2022/03/30 00:26:29;;;;;;;34.53;13.30;;;11.60;98.10;;;11.72;62.75;99979.22;5239581;28;20436;-70
2022/03/30 00:29:03;;;;;;;37.90;13.32;;;11.60;98.00;;;11.70;62.74;99976.56;5238913;28;20050;-70
2022/03/30 00:31:35;;;;;;;39.17;14.30;;;11.60;98.10;;;11.67;63.27;99966.06;5245253;28;20098;-70
2022/03/30 00:34:07;;;;;;;35.53;13.70;;;11.50;98.60;;;11.65;63.58;99963.44;5245627;28;20045;-71
2022/03/30 00:36:39;;;;;;;33.38;14.18;;;11.50;98.80;;;11.65;64.02;99968.66;5246076;28;20055;-70
2022/03/30 00:39:11;;;;;;;32.47;12.85;;;11.50;99.00;;;11.63;63.94;99959.06;5245088;28;20058;-70
2022/03/30 00:41:44;;;;;;;36.33;12.77;;;11.50;99.00;;;11.59;64.09;99958.09;5245660;28;20055;-71
2022/03/30 00:44:16;;;;;;;34.35;12.95;;;11.50;99.00;;;11.61;64.48;99960.78;5245155;28;20040;-71
2022/03/30 00:46:49;;;;;;;33.10;13.48;;;11.50;99.30;;;11.60;64.77;99958.97;5245394;28;20515;-70
2022/03/30 00:49:21;;;;;;;30.90;12.85;;;11.50;99.60;;;11.57;65.06;99949.38;5244444;28;20496;-72
2022/03/30 00:51:52;;;;;;;33.42;12.85;;;11.40;99.70;;;11.56;65.11;99954.59;5245583;28;20052;-70
2022/03/30 00:54:25;;;;;;;37.08;14.25;;;11.40;99.80;;;11.53;65.20;99951.91;5245475;28;20044;-70
2022/03/30 00:56:59;;;;;;;35.25;12.95;;;11.40;99.90;;;11.50;65.17;99951.88;5245208;28;20481;-70
2022/03/30 00:59:31;;;;;;;37.92;13.18;;;11.40;99.70;;;11.51;65.41;99954.50;5245042;28;20519;-70
2022/03/30 01:02:04;;;;;;;35.30;13.25;;;11.40;99.90;;;11.50;65.54;99952.75;5245395;28;20428;-71
2022/03/30 01:04:36;;;;;;;38.78;14.30;;;11.30;99.90;;;11.50;65.27;99947.53;5245564;28;20055;-71
2022/03/30 01:07:09;;;;;;;37.33;13.57;;;11.40;99.90;;;11.49;65.35;99942.28;5244882;28;20064;-70
2022/03/30 01:09:41;;;;;;;34.78;13.32;;;11.30;99.90;;;11.48;65.33;99949.22;5245039;28;20041;-70
2022/03/30 01:12:15;;;;;;;32.95;12.50;;;11.30;99.90;;;11.45;65.38;99949.16;5245586;28;20516;-70
2022/03/30 01:14:47;;;;;;;34.63;13.15;;;11.30;99.90;;;11.45;65.50;99949.16;5245883;28;20044;-70
2022/03/30 01:17:19;;;;;;;36.40;13.68;;;11.30;99.90;;;11.45;65.83;99943.06;5248592;28;20044;-70
2022/03/30 01:19:52;;;;;;;32.50;13.10;;;11.30;99.90;;;11.45;66.08;99941.34;5249039;28;20059;-70
2022/03/30 01:22:25;;;;;;;34.85;13.40;;;11.30;99.90;;;11.43;65.77;99940.44;5249167;28;20049;-70
2022/03/30 01:24:57;;;;;;;36.42;13.40;;;11.30;99.90;;;11.43;66.20;99945.66;5248865;28;20052;-70
2022/03/30 01:27:29;;;;;;;37.47;13.98;;;11.30;99.90;;;11.43;66.69;99930.00;5248577;28;20048;-70
2022/03/30 01:33:08;;;;;;;33.55;13.00;;;11.30;99.90;;;11.43;68.16;99926.50;5249025;28;20060;-70
2022/03/30 01:35:41;;;;;;;34.47;13.93;;;11.30;99.90;;;11.41;68.43;99919.53;5248799;28;20071;-70
2022/03/30 01:38:14;;;;;;;31.73;12.93;;;11.30;99.90;;;11.42;69.63;99920.41;5240761;28;20049;-70
2022/03/30 01:40:46;;;;;;;33.40;13.80;;;11.30;99.90;;;11.41;70.50;99910.84;5231017;28;20414;-70
2022/03/30 01:43:18;;;;;;;36.50;13.85;;;11.30;99.90;;;11.41;71.28;99905.63;5228132;28;20052;-71
2022/03/30 01:45:50;;;;;;;39.47;14.40;;;11.30;99.90;;;11.35;70.29;99901.16;5227802;28;20066;-71
2022/03/30 01:48:23;;;;;;;40.08;13.98;;;11.20;99.90;;;11.34;71.15;99901.13;5227492;28;20405;-71
2022/03/30 01:50:55;;;;;;;38.28;13.60;;;11.20;99.90;;;11.31;71.56;99914.13;5227496;28;20099;-71
2022/03/30 01:53:28;;;;;;;34.13;13.55;;;11.20;99.90;;;11.27;72.63;99907.97;5227221;28;20504;-70
2022/03/30 01:56:00;;;;;;;41.08;14.25;;;11.20;99.90;;;11.24;73.14;99901.81;5227710;28;20509;-70
2022/03/30 01:58:32;;;;;;;39.90;14.10;;;11.10;99.90;;;11.19;73.52;99900.84;5226854;28;20049;-70
2022/03/30 02:01:05;;;;;;;41.67;14.63;;;11.10;99.90;;;11.13;73.59;99896.41;5227448;28;20048;-70
2022/03/30 02:03:37;;;;;;;36.05;14.63;;;11.00;99.90;;;11.06;74.38;99902.34;5227269;28;20056;-70
2022/03/30 02:06:12;;;;;;;39.92;14.93;;;11.00;99.90;;;11.04;75.58;99894.50;5227448;28;20053;-71
2022/03/30 02:08:45;;;;;;;37.97;14.27;;;11.00;99.90;;;10.99;76.53;99896.16;5227008;28;20053;-71
2022/03/30 02:11:17;;;;;;;38.95;14.07;;;10.90;99.90;;;10.96;77.49;99888.28;5227360;28;20504;-70
2022/03/30 02:13:50;;;;;;;39.28;15.10;;;10.90;99.90;;;10.94;78.06;99892.56;5227209;28;20048;-70
2022/03/30 02:16:22;;;;;;;37.53;15.05;;;10.90;99.90;;;10.91;78.92;99886.44;5227276;28;20045;-70
2022/03/30 02:18:54;;;;;;;42.17;15.45;;;10.80;99.90;;;10.87;79.09;99885.50;5226909;28;20064;-70
2022/03/30 02:21:26;;;;;;;39.13;14.73;;;10.80;99.90;;;10.82;79.85;99882.81;5227179;28;20049;-70
2022/03/30 02:24:00;;;;;;;35.58;15.25;;;10.70;99.90;;;10.78;80.34;99886.19;5227130;28;20055;-70
2022/03/30 02:26:32;;;;;;;34.17;13.68;;;10.70;99.90;;;10.75;80.41;99886.13;5225970;28;20052;-71
2022/03/30 02:29:04;;;;;;;40.67;14.75;;;10.70;99.90;;;10.76;81.04;99876.59;5226581;28;20055;-70
2022/03/30 02:31:36;;;;;;;38.92;14.73;;;10.70;99.90;;;10.75;81.33;99880.03;5226986;28;20049;-70
2022/03/30 02:34:08;;;;;;;39.03;14.50;;;10.60;99.90;;;10.74;81.75;99866.13;5227013;28;20045;-70
2022/03/30 02:36:42;;;;;;;41.13;15.02;;;10.60;99.90;;;10.76;82.06;99871.38;5226888;28;20049;-70
2022/03/30 02:39:15;;;;;;;38.03;14.27;;;10.60;99.90;;;10.76;82.02;99871.38;5226340;28;20426;-70
2022/03/30 02:41:47;;;;;;;40.90;14.10;;;10.60;99.90;;;10.75;81.76;99869.59;5226627;28;20098;-69
2022/03/30 02:44:19;;;;;;;40.95;15.70;;;10.60;99.90;;;10.74;81.72;99867.84;5227134;28;20136;-70
2022/03/30 02:46:51;;;;;;;41.75;14.85;;;10.60;99.90;;;10.73;81.83;99874.78;5226746;28;20055;-70
2022/03/30 02:49:25;;;;;;;37.03;13.48;;;10.60;99.90;;;10.72;81.37;99861.75;5225948;28;20505;-71
2022/03/30 02:51:57;;;;;;;43.78;14.65;;;10.60;99.90;;;10.69;80.13;99864.28;5226738;28;20106;-71
2022/03/30 02:54:31;;;;;;;39.40;13.77;;;10.60;99.90;;;10.66;79.55;99864.22;5226447;28;20136;-70
2022/03/30 02:57:03;;;;;;;39.22;14.65;;;10.60;99.90;;;10.62;78.85;99859.78;5226071;28;20048;-70
2022/03/30 02:59:35;;;;;;;36.55;14.18;;;10.60;99.90;;;10.60;78.17;99862.38;5226194;28;20056;-71
2022/03/30 03:02:08;;;;;;;38.03;13.60;;;10.60;99.90;;;10.63;78.44;99864.16;5226662;28;20087;-70
2022/03/30 03:04:39;;;;;;;36.75;13.50;;;10.60;99.90;;;10.66;78.99;99864.22;5226134;28;20053;-70
2022/03/30 03:07:14;;;;;;;37.10;13.18;;;10.60;99.90;;;10.64;78.46;99848.56;5246293;28;20041;-70
2022/03/30 03:09:47;;;;;;;39.67;13.93;;;10.60;99.90;;;10.57;77.46;99850.19;5246953;28;20610;-70
2022/03/30 03:12:19;;;;;;;36.80;13.57;;;10.60;99.90;;;10.51;76.84;99850.06;5246651;28;20052;-71
2022/03/30 03:14:51;;;;;;;37.40;13.30;;;10.50;99.90;;;10.52;77.14;99851.81;5246691;28;20045;-70
2022/03/30 03:17:23;;;;;;;37.72;14.00;;;10.50;99.90;;;10.54;77.59;99844.88;5246346;28;20091;-70
2022/03/30 03:19:55;;;;;;;38.45;14.40;;;10.50;99.90;;;10.49;77.42;99851.72;5246660;28;20048;-70
2022/03/30 03:22:27;;;;;;;40.08;14.45;;;10.50;99.90;;;10.53;77.72;99850.94;5246520;28;20054;-70
2022/03/30 03:25:01;;;;;;;34.53;13.18;;;10.50;99.90;;;10.51;77.69;99844.84;5246531;28;20048;-70
2022/03/30 03:27:33;;;;;;;37.78;13.77;;;10.40;99.90;;;10.51;78.11;99843.97;5245874;28;20140;-71
2022/03/30 03:30:06;;;;;;;36.45;13.70;;;10.50;99.90;;;10.50;78.23;99845.69;5246351;28;20052;-70
2022/03/30 03:32:39;;;;;;;36.17;13.70;;;10.40;99.90;;;10.50;78.89;99843.09;5246483;28;20067;-70
2022/03/30 03:35:11;;;;;;;41.00;14.43;;;10.40;99.90;;;10.50;78.93;99837.00;5246323;28;20082;-71
2022/03/30 03:37:43;;;;;;;42.00;14.98;;;10.40;99.90;;;10.49;78.84;99832.63;5245672;28;20056;-71
2022/03/30 03:40:17;;;;;;;38.85;15.27;;;10.40;99.90;;;10.49;78.46;99837.81;5246118;28;20059;-70
2022/03/30 03:42:49;;;;;;;37.90;13.65;;;10.40;99.90;;;10.43;78.43;99830.78;5246351;28;20044;-70
2022/03/30 03:45:22;;;;;;;39.20;14.27;;;10.40;99.90;;;10.45;78.19;99831.69;5246450;28;20496;-72
2022/03/30 03:47:54;;;;;;;40.13;14.50;;;10.40;99.90;;;10.46;77.64;99825.63;5245651;28;20052;-70
2022/03/30 03:50:27;;;;;;;37.60;14.07;;;10.40;99.90;;;10.48;77.74;99829.13;5246209;28;20048;-70
2022/03/30 03:53:01;;;;;;;40.33;14.85;;;10.40;99.90;;;10.49;77.60;99827.41;5246274;28;20493;-70
2022/03/30 03:55:36;;;;;;;44.60;14.95;;;10.40;99.90;;;10.46;77.92;99828.22;5246082;28;20091;-71
2022/03/30 03:58:09;;;;;;;;;;;10.40;99.90;;;10.43;78.17;99820.38;5245483;28;20059;-70
2022/03/30 04:00:41;;;;;;;37.83;13.23;;;10.40;99.90;;;10.43;78.31;99820.38;5245216;28;20419;-70
2022/03/30 04:03:13;;;;;;;41.75;13.95;;;10.40;99.90;;;10.44;78.53;99821.25;5245385;28;20412;-70
2022/03/30 04:05:45;;;;;;;39.85;13.77;;;10.40;99.90;;;10.41;78.56;99816.84;5245132;28;20055;-70
2022/03/30 04:08:20;;;;;;;37.20;14.30;;;10.40;99.90;;;10.38;78.68;99819.38;5244534;28;20049;-70
2022/03/30 04:10:53;;;;;;;36.85;14.35;;;10.30;99.90;;;10.35;78.69;99819.31;5245070;28;20049;-71
2022/03/30 04:13:25;;;;;;;39.88;13.57;;;10.30;99.90;;;10.35;78.61;99829.72;5245268;28;20045;-70
2022/03/30 04:15:57;;;;;;;38.28;14.13;;;10.30;99.90;;;10.33;78.41;99824.50;5245280;28;20049;-70
2022/03/30 04:18:29;;;;;;;43.67;15.48;;;10.30;99.90;;;10.31;78.12;99830.53;5244384;28;20126;-71
2022/03/30 04:21:01;;;;;;;40.33;14.55;;;10.30;99.90;;;10.30;78.24;99815.72;5244828;28;20059;-70
2022/03/30 04:23:33;;;;;;;37.05;14.27;;;10.20;99.90;;;10.28;78.03;99807.88;5245137;28;20070;-71
2022/03/30 04:26:06;;;;;;;34.67;13.70;;;10.20;99.90;;;10.27;78.28;99807.88;5244824;28;20045;-70
2022/03/30 04:28:40;;;;;;;38.13;13.40;;;10.20;99.90;;;10.27;78.02;99802.66;5244527;28;20498;-70
2022/03/30 04:31:13;;;;;;;40.58;14.45;;;10.30;99.90;;;10.24;78.31;99797.41;5244755;28;20583;-70
2022/03/30 04:33:45;;;;;;;40.38;14.02;;;10.20;99.90;;;10.22;78.40;99814.66;5245009;28;20051;-70
2022/03/30 04:36:17;;;;;;;36.45;13.40;;;10.20;99.90;;;10.21;78.91;99816.41;5244742;28;20041;-70
2022/03/30 04:38:49;;;;;;;39.15;14.32;;;10.20;99.90;;;10.19;78.75;99812.03;5244304;28;20045;-71
2022/03/30 04:41:23;;;;;;;36.75;12.93;;;10.10;99.90;;;10.16;78.98;99809.34;5244577;28;20044;-70
2022/03/30 04:43:55;;;;;;;39.60;13.68;;;10.10;99.90;;;10.12;79.32;99812.75;5244667;28;20044;-70
2022/03/30 04:46:27;;;;;;;37.72;14.32;;;10.10;99.90;;;10.09;79.65;99810.06;5244763;28;20492;-71
2022/03/30 04:48:59;;;;;;;37.28;12.68;;;10.00;99.90;;;10.06;79.98;99809.16;5244248;28;20525;-71
2022/03/30 04:51:31;;;;;;;38.45;14.02;;;10.00;99.90;;;10.03;79.82;99808.19;5247884;28;20139;-70
2022/03/30 04:54:03;;;;;;;39.03;14.93;;;10.00;99.90;;;10.02;80.20;99806.44;5248246;28;20528;-70
2022/03/30 04:56:37;;;;;;;42.83;13.77;;;9.90;99.90;;;10.03;80.39;99805.59;5248523;28;20048;-71
2022/03/30 04:59:09;;;;;;;39.55;14.07;;;10.00;99.90;;;10.01;79.95;99802.97;5221531;22;1092981;-73
2022/03/30 05:01:41;;;;;;;37.30;13.57;;;9.90;99.90;;;10.03;80.00;99796.06;5248961;28;20048;-72
2022/03/30 05:04:13;;;;;;;39.30;14.65;;;10.00;99.90;;;10.05;79.96;99798.72;5270386;28;20052;-73
2022/03/30 05:06:45;;;;;;;35.92;13.57;;;10.00;99.90;;;10.04;79.90;99791.72;5249253;28;20055;-73
2022/03/30 05:09:17;;;;;;;39.00;15.02;;;10.00;99.90;;;10.01;79.54;99794.28;5248991;28;20054;-73
2022/03/30 05:11:51;;;;;;;36.20;14.55;;;9.90;99.90;;;9.97;79.46;99795.03;5249064;28;20044;-73
2022/03/30 05:14:23;;;;;;;39.30;13.50;;;9.90;99.90;;;9.93;79.89;99801.94;5249009;28;20474;-74
2022/03/30 05:16:55;;;;;;;40.72;14.30;;;9.90;99.90;;;9.90;79.90;99799.25;5249222;28;20044;-73
2022/03/30 05:19:27;;;;;;;40.38;13.70;;;9.90;99.90;;;9.91;80.55;99807.94;5249169;28;20048;-74
2022/03/30 05:21:59;;;;;;;34.40;13.00;;;9.80;99.90;;;9.90;81.13;99807.06;5249161;28;20411;-72
2022/03/30 05:24:31;;;;;;;37.20;13.52;;;9.80;99.90;;;9.90;81.55;99812.25;5246953;28;20139;-72
2022/03/30 05:27:05;;;;;;;38.80;13.88;;;9.80;99.90;;;9.88;81.95;99808.75;5247269;28;20045;-71
2022/03/30 05:29:37;;;;;;;36.78;14.18;;;9.80;99.90;;;9.87;81.81;99807.00;5249113;28;20139;-73
2022/03/30 05:32:09;;;;;;;35.83;14.40;;;9.80;99.90;;;9.87;82.28;99800.91;5248722;28;20153;-73
2022/03/30 05:34:41;;;;;;;39.83;14.85;;;9.80;99.90;;;9.85;82.42;99808.69;5249040;28;20052;-73
2022/03/30 05:37:13;;;;;;;38.75;14.55;;;9.80;99.90;;;9.86;82.39;99807.84;5248257;28;20050;-73
2022/03/30 05:39:47;;;;;;;41.97;14.45;;;9.80;99.90;;;9.86;82.67;99805.25;5248694;28;20241;-73
2022/03/30 05:42:21;;;;;;;35.65;14.25;;;9.80;99.90;;;9.86;82.30;99804.38;5248968;28;20401;-73
2022/03/30 05:44:54;;;;;;;40.05;14.05;;;9.80;99.90;;;9.83;82.61;99805.16;5249025;28;20068;-72
2022/03/30 05:47:28;;;;;;;37.40;14.07;;;9.80;99.90;;;9.85;82.63;99811.31;5248217;28;20044;-71
2022/03/30 05:50:00;;;;;;;38.97;14.52;;;9.80;99.90;;;9.87;82.50;99811.31;5248480;28;20135;-72
2022/03/30 05:52:32;;;;;;;39.60;13.95;;;9.80;99.90;;;9.87;82.69;99812.19;5248562;28;20060;-72
2022/03/30 05:55:05;;;;;;;35.03;13.70;;;9.80;99.90;;;9.90;83.21;99812.25;5248394;28;20056;-72
2022/03/30 05:57:39;;;;;;;39.67;14.55;;;9.80;99.90;;;9.91;83.18;99814.03;5248087;28;20400;-69
2022/03/30 06:00:13;;;;;;;34.42;13.52;;;9.80;99.90;;;9.94;83.00;99819.31;5248508;28;20074;-70
2022/03/30 06:02:45;;;;;;;39.58;14.38;;;9.90;99.90;;;9.96;82.85;99817.59;5255312;28;20427;-68
2022/03/30 06:05:17;;;;;;;38.95;13.98;;;9.90;99.90;;;9.99;82.64;99820.28;5248088;28;20052;-70
2022/03/30 06:07:49;;;;;;;38.55;14.35;;;9.90;99.90;;;10.02;83.22;99817.72;5248229;28;20050;-69
2022/03/30 06:10:21;;;;;;;43.33;14.63;;;9.90;99.90;;;10.04;83.36;99815.16;5248063;28;20051;-69
2022/03/30 06:12:54;;;;;;;36.28;14.73;;;10.00;99.90;;;10.05;83.12;99810.00;5247953;28;20044;-69
2022/03/30 06:15:27;;;;;;;40.90;13.50;;;10.00;99.90;;;10.10;83.07;99817.88;5256421;28;20045;-69
2022/03/30 06:18:00;;;;;;;44.15;15.25;;;10.00;99.90;;;10.12;83.20;99812.75;5247962;28;20048;-70
2022/03/30 06:20:32;;;;;;;38.95;13.68;;;10.00;99.90;;;10.16;83.09;99810.22;5247806;28;20127;-69
2022/03/30 06:23:04;;;;;;;38.78;14.45;;;10.00;99.90;;;10.18;83.03;99812.88;5248111;28;20049;-70
2022/03/30 06:25:36;;;;;;;43.85;14.93;;;10.10;99.90;;;10.20;82.65;99811.16;5255580;28;20074;-68
2022/03/30 06:28:09;;;;;;;41.65;14.90;;;10.10;99.90;;;10.24;82.46;99813.03;5256241;28;20052;-69
2022/03/30 06:30:42;;;;;;;39.45;14.63;;;10.10;99.90;;;10.28;82.70;99825.25;5247988;28;20055;-69
2022/03/30 06:33:14;;;;;;;43.30;14.68;;;10.20;99.90;;;10.30;82.84;99814.03;5260655;28;20052;-69
2022/03/30 06:35:46;;;;;;;41.53;15.38;;;10.20;99.90;;;10.34;82.96;99822.78;5259316;28;20405;-69
2022/03/30 06:38:19;;;;;;;44.95;15.43;;;10.20;99.90;;;10.39;82.74;99815.06;5248109;28;20048;-69
2022/03/30 06:40:51;;;;;;;41.42;15.20;;;10.30;99.90;;;10.42;82.44;99821.19;5247742;28;20106;-69
2022/03/30 06:43:24;;;;;;;39.10;14.95;;;10.30;99.90;;;10.43;82.05;99812.56;5248037;28;20336;-69
2022/03/30 06:45:56;;;;;;;38.90;12.98;;;10.30;99.90;;;10.48;81.71;99817.84;5247561;28;20048;-70
2022/03/30 06:48:28;;;;;;;42.70;14.57;;;10.30;99.90;;;10.54;81.51;99816.22;5247592;28;20056;-69
2022/03/30 06:51:00;;;;;;;37.45;14.63;;;10.40;99.90;;;10.59;81.06;99825.00;5247023;28;20071;-68
2022/03/30 06:53:32;;;;;;;37.47;14.68;;;10.40;99.90;;;10.64;80.22;99814.69;5247203;28;20045;-70
2022/03/30 06:56:05;;;;;;;39.80;14.65;;;10.50;99.90;;;10.66;79.71;99820.78;5247676;28;20481;-70
2022/03/30 06:58:38;;;;;;;38.13;15.05;;;10.50;99.90;;;10.72;79.94;99812.22;5247093;28;20056;-69
2022/03/30 07:01:12;;;;;;;36.17;14.35;;;10.50;99.90;;;10.73;79.14;99819.19;5247447;28;20070;-69
2022/03/30 07:03:44;;;;;;;34.63;13.52;;;10.60;99.90;;;10.88;79.10;99822.06;5247121;28;20102;-63
2022/03/30 07:06:16;;;;;;;35.15;13.05;;;10.60;99.90;;;11.14;77.81;99822.50;5247267;28;20477;-63
2022/03/30 07:11:37;;;;;;;33.17;13.90;;;11.10;99.90;;;11.49;74.18;99825.72;5242356;28;20109;-64
2022/03/30 07:14:11;;;;;;;37.20;14.10;;;11.30;99.90;;;11.69;73.14;99821.69;5246231;28;20058;-65
2022/03/30 07:16:43;;;;;;;37.45;14.40;;;11.50;99.90;;;11.78;71.87;99822.66;5246970;28;20041;-65
2022/03/30 07:19:15;;;;;;;35.17;13.43;;;11.60;99.90;;;11.79;71.33;99821.81;5244112;28;20058;-66
2022/03/30 07:21:47;;;;;;;33.92;12.93;;;11.60;99.90;;;11.74;71.23;99824.38;5245582;28;20052;-66
2022/03/30 07:24:19;;;;;;;31.40;12.43;;;11.60;99.90;;;11.70;70.80;99822.56;5245558;28;20164;-66
2022/03/30 07:26:51;;;;;;;37.10;13.65;;;11.50;99.90;;;11.73;70.45;99813.88;5245234;28;20045;-66
2022/03/30 07:29:24;;;;;;;36.15;13.63;;;11.50;99.90;;;11.73;70.36;99819.09;5245843;28;20048;-66
2022/03/30 07:31:56;;;;;;;32.08;12.77;;;11.60;99.90;;;11.74;69.53;99816.53;5246813;28;20052;-66
2022/03/30 07:34:28;;;;;;;34.58;13.60;;;11.60;99.90;;;11.77;68.90;99813.94;5246131;28;20044;-67
2022/03/30 07:37:00;;;;;;;32.60;12.40;;;11.60;99.90;;;11.83;68.91;99818.41;5246574;28;20393;-66
2022/03/30 07:39:32;;;;;;;37.35;13.75;;;11.60;99.90;;;11.94;68.13;99815.09;5246390;28;20600;-66
2022/03/30 07:42:05;;;;;;;39.25;13.38;;;11.70;99.90;;;12.08;67.89;99812.69;5246331;28;20470;-66
2022/03/30 07:44:38;;;;;;;36.67;13.73;;;11.80;99.90;;;12.27;67.17;99805.97;5246387;28;20055;-66
2022/03/30 07:47:10;;;;;;;35.22;13.88;;;12.00;99.90;;;12.38;66.77;99806.94;5245965;28;20063;-66
2022/03/30 07:49:42;;;;;;;35.60;12.63;;;12.10;99.90;;;12.51;66.50;99802.72;5246004;28;20139;-67
2022/03/30 07:52:14;;;;;;;30.73;12.75;;;12.20;99.90;;;12.58;65.86;99804.53;5246599;28;20051;-66
2022/03/30 07:54:47;;;;;;;31.98;12.23;;;12.30;99.90;;;12.81;66.00;99807.41;5246080;28;20055;-67
2022/03/30 07:57:20;;;;;;;32.13;12.63;;;12.50;99.90;;;13.20;64.99;99809.56;5246134;28;20066;-68
2022/03/30 07:59:55;;;;;;;38.17;13.35;;;12.80;99.90;;;13.48;63.00;99807.16;5246133;28;20481;-67
2022/03/30 08:02:28;;;;;;;28.63;11.98;;;13.10;99.70;;;13.58;61.65;99803.75;5246242;28;20500;-66
2022/03/30 08:05:00;;;;;;;31.77;11.10;;;13.20;98.70;;;13.75;61.07;99802.09;5243342;28;20053;-64
2022/03/30 08:07:34;;;;;;;33.15;13.35;;;13.40;98.20;;;13.85;59.94;99797.81;5242304;28;20396;-67
2022/03/30 08:10:09;;;;;;;31.17;12.00;;;13.50;97.10;;;13.73;60.11;99803.84;5242979;28;20049;-65
2022/03/30 08:12:41;;;;;;;31.55;12.15;;;13.50;96.80;;;13.70;59.93;99798.59;5243290;28;20078;-67
2022/03/30 08:15:15;;;;;;;28.60;10.93;;;13.40;96.80;;;13.70;59.88;99808.19;5243155;28;20048;-66
2022/03/30 08:17:47;;;;;;;32.70;12.45;;;13.30;96.90;;;13.73;59.38;99802.97;5242497;28;20045;-68
2022/03/30 08:23:10;;;;;;;31.75;12.02;;;13.40;97.20;;;14.77;58.14;99799.06;5246019;28;20059;-66
2022/03/30 08:25:42;;;;;;;30.88;12.35;;;13.80;97.50;;;15.48;55.64;99792.97;5248340;28;20482;-67
2022/03/30 08:28:14;;;;;;;32.30;12.95;;;14.20;96.50;;;16.25;53.60;99791.06;5254331;28;20044;-67
2022/03/30 08:30:48;;;;;;;30.42;11.50;;;14.70;95.40;;;17.15;51.34;99797.59;5271087;28;20044;-67
2022/03/30 08:33:23;;;;;;;30.27;12.43;;;15.30;94.20;;;17.89;48.94;99784.63;5271074;28;20076;-66
2022/03/30 08:35:55;;;;;;;26.92;11.95;;;15.90;92.20;;;18.31;46.60;99798.19;5271346;28;20102;-66
2022/03/30 08:38:27;;;;;;;26.73;11.57;;;16.30;89.50;;;18.48;46.05;99798.84;5270641;28;20055;-67
2022/03/30 08:41:01;;;;;;;27.10;12.15;;;16.60;86.40;;;18.93;43.99;99801.78;5271049;28;20135;-65
2022/03/30 08:43:33;;;;;;;27.13;11.57;;;16.90;82.00;;;19.39;42.67;99791.34;5270634;28;20381;-66
2022/03/30 08:46:07;;;;;;;29.80;12.20;;;17.30;79.00;;;20.16;41.18;99793.47;5270960;28;20143;-66
2022/03/30 08:48:39;;;;;;;24.90;11.13;;;17.70;76.50;;;21.02;39.67;99794.28;5270652;28;20400;-66
2022/03/30 08:51:13;;;;;;;26.85;11.68;;;18.40;74.20;;;21.83;38.11;99786.94;5270532;28;20044;-67
2022/03/30 08:53:45;;;;;;;25.52;11.05;;;19.00;71.00;;;22.16;36.49;99790.47;5270886;28;20086;-68
2022/03/30 08:56:18;;;;;;;25.73;11.40;;;19.40;67.60;;;22.41;35.95;99793.28;5270714;28;20051;-66
2022/03/30 09:04:16;;;;;;;22.67;10.98;;;20.20;62.30;;;22.67;34.13;99797.81;5271188;22;20064;-80
2022/03/30 09:06:50;;;;;;;25.65;11.55;;;20.40;61.00;;;22.52;34.47;99796.50;5226284;28;20057;-80
2022/03/30 09:09:30;;;;;;;23.23;11.45;;;20.40;60.50;;;22.31;34.40;99805.97;5228957;28;20053;-81
2022/03/30 09:12:08;;;;;;;24.83;10.52;;;20.50;59.60;;;22.19;34.31;99799.22;5230242;28;20048;-81
2022/03/30 09:17:20;;;;;;;23.33;9.70;;;20.40;58.10;;;21.44;34.90;99786.19;5220047;28;20095;-69
2022/03/30 09:19:54;;;;;;;23.65;10.65;;;20.30;57.70;;;20.79;34.41;99785.06;5226869;28;20049;-67
2022/03/30 09:22:28;;;;;;;25.77;10.57;;;20.00;56.40;;;20.29;35.45;99784.38;5221663;28;20053;-68
2022/03/30 09:25:02;;;;;;;23.00;10.20;;;19.60;56.90;;;19.95;35.90;99783.31;5228330;28;20440;-65
2022/03/30 09:27:34;;;;;;;24.92;10.15;;;19.40;57.30;;;19.77;36.54;99793.34;5218597;28;20049;-68
2022/03/30 09:30:08;;;;;;;22.38;9.25;;;19.20;58.30;;;19.75;36.26;99784.56;5217154;28;20084;-64
2022/03/30 09:32:42;;;;;;;24.65;9.85;;;19.20;57.20;;;19.43;35.95;99784.22;5217821;28;20064;-65
2022/03/30 09:35:25;;;;;;;20.65;8.93;;;19.00;56.60;;;19.35;36.81;99773.78;5225682;28;20139;-64
2022/03/30 09:38:03;;;;;;;24.50;9.27;;;18.90;57.60;;;19.31;37.18;99773.91;5226619;28;20095;-65
2022/03/30 09:40:43;;;;;;;19.63;9.60;;;18.90;58.20;;;19.32;36.85;99768.56;5224406;28;20425;-66
2022/03/30 09:43:23;;;;;;;22.80;10.00;;;18.90;57.80;;;19.31;36.93;99764.19;5224571;28;20053;-65
2022/03/30 09:46:08;;;;;;;17.40;8.05;;;18.80;58.00;;;19.16;37.46;99775.88;5227953;28;20418;-66
2022/03/30 09:48:49;;;;;;;20.10;8.80;;;18.70;58.90;;;19.07;37.88;99762.81;5227373;28;20049;-66
2022/03/30 09:51:26;;;;;;;24.33;9.82;;;18.60;59.00;;;19.16;37.98;99762.66;5225264;28;20056;-66
2022/03/30 09:53:58;;;;;;;23.75;10.10;;;18.60;59.10;;;19.18;36.94;99755.59;5227264;28;20079;-66
2022/03/30 09:56:32;;;;;;;23.60;8.82;;;18.60;58.00;;;19.18;37.60;99747.69;5227775;28;20053;-67
2022/03/30 09:59:05;;;;;;;19.20;9.23;;;18.60;58.90;;;19.22;36.19;99754.63;5220944;28;20103;-66
2022/03/30 10:01:38;;;;;;;19.90;8.07;;;18.60;56.80;;;19.25;36.63;99745.81;5225529;28;20102;-66
2022/03/30 10:04:12;;;;;;;19.95;8.13;;;18.60;57.40;;;19.31;36.12;99748.34;5227439;28;20140;-64
2022/03/30 10:06:53;;;;;;;22.98;9.05;;;18.70;56.90;;;19.32;35.82;99743.94;5227396;28;20508;-69
2022/03/30 10:09:25;;;;;;;19.30;9.00;;;18.70;56.50;;;19.17;34.64;99738.00;5228271;28;20409;-68
2022/03/30 10:11:57;;;;;;;20.13;8.98;;;18.60;55.10;;;19.00;35.05;99750.63;5227526;28;20048;-70
2022/03/30 10:14:29;;;;;;;19.20;7.78;;;18.40;55.40;;;18.97;35.74;99740.97;5227158;28;20080;-70
2022/03/30 10:17:01;;;;;;;15.68;6.97;;;18.30;56.20;;;18.97;36.51;99740.97;5227239;28;20045;-70
2022/03/30 10:19:33;;;;;;;16.75;8.07;;;18.20;57.20;;;18.88;36.18;99735.84;5227426;28;20048;-69
2022/03/30 10:22:20;;;;;;;17.63;7.85;;;18.10;57.00;;;18.83;35.08;99736.78;5224210;28;20053;-70
2022/03/30 10:25:17;;;;;;;16.85;7.40;;;18.10;55.30;;;18.84;35.32;99738.53;5217116;28;20377;-64
2022/03/30 10:28:11;;;;;;;19.35;8.35;;;18.10;56.10;;;19.06;34.34;99726.75;5220633;28;20049;-65
2022/03/30 10:30:44;;;;;;;16.77;8.10;;;18.30;55.50;;;19.10;34.95;99720.50;5206022;28;20060;-65
2022/03/30 10:33:31;;;;;;;16.40;7.50;;;18.40;55.70;;;19.25;34.88;99716.75;5219584;28;20075;-65
2022/03/30 10:36:23;;;;;;;20.90;7.93;;;18.50;55.40;;;19.48;34.17;99711.03;5223143;28;20410;-64
2022/03/30 10:39:26;;;;;;;17.48;7.22;;;18.70;54.90;;;19.52;31.88;99708.31;5220577;28;20478;-64
2022/03/30 10:42:07;;;;;;;12.68;6.15;;;18.90;54.50;;;19.33;33.83;99703.38;5224864;28;20102;-58
2022/03/30 10:44:42;;;;;;;18.23;6.93;;;18.80;53.60;;;19.45;33.49;99700.53;5226427;28;20048;-64
2022/03/30 10:47:16;;;;;;;21.25;7.43;;;18.80;53.60;;;19.45;33.28;99705.81;5223090;28;20041;-65
2022/03/30 10:49:51;;;;;;;;;;;18.80;53.30;;;19.37;33.87;99711.25;5229300;28;20064;-64